Time;durP1;ratioP1;P1;durP2;ratioP2;P2;SDS_P1;SDS_P2;PMS_P1;PMS_P2;Temp;Humidity;BMP_temperature;BMP_pressure;BME280_temperature;BME280_humidity;BME280_pressure;Samples;Min_cycle;Max_cycle;Signal;HPM_P1;HPM_P2
2022/11/21 13:31:55;;;;;;;12.48;2.70;;;;;;;;;;5062164;27;20454;-70
2022/11/21 13:34:36;;;;;;;19.02;7.70;;;;;;;;;;5060583;28;20387;-69
2022/11/21 13:37:02;;;;;;;15.55;3.35;;;;;;;;;;5063560;28;20028;-71
2022/11/21 13:39:33;;;;;;;16.02;3.05;;;;;;;;;;5061463;28;20074;-71
2022/11/21 13:44:46;;;;;;;13.25;2.78;;;;;;;;;;5085412;28;20148;-70
2022/11/21 13:47:24;;;;;;;16.40;2.97;;;;;;;;;;5081380;28;20169;-71
2022/11/21 13:49:57;;;;;;;17.33;3.35;;;;;;;;;;5083776;28;20035;-71
2022/11/21 13:52:23;;;;;;;19.98;3.30;;;;;;;;;;5079656;28;20478;-71
2022/11/21 13:55:16;;;;;;;16.33;3.45;;;;;;;;;;5078525;28;20396;-70
2022/11/21 13:57:48;;;;;;;18.17;3.17;;;;;;;;;;5082327;28;20152;-71
2022/11/21 14:00:28;;;;;;;12.27;2.20;;;;;;;;;;5080383;28;20070;-70
2022/11/21 14:03:03;;;;;;;10.27;2.10;;;;;;;;;;5084859;28;20035;-71
2022/11/21 14:05:48;;;;;;;10.48;1.88;;;;;;;;;;5080635;28;20108;-71
2022/11/21 14:08:17;;;;;;;11.00;2.20;;;;;;;;;;5077940;28;20084;-71
2022/11/21 14:10:46;;;;;;;11.13;2.03;;;;;;;;;;5082977;28;20118;-71
2022/11/21 14:13:33;;;;;;;6.95;1.70;;;;;;;;;;5081379;28;20112;-72
2022/11/21 14:16:18;;;;;;;10.35;1.90;;;;;;;;;;5074185;28;20414;-71
2022/11/21 14:21:28;;;;;;;12.47;1.87;;;;;;;;;;5076944;22;20058;-70
2022/11/21 14:24:03;;;;;;;14.00;2.33;;;;;;;;;;5076588;28;20386;-70
2022/11/21 14:26:31;;;;;;;10.13;2.92;;;;;;;;;;5078911;27;20540;-68
2022/11/21 14:29:15;;;;;;;10.02;1.60;;;;;;;;;;5083601;28;20034;-70
2022/11/21 14:31:52;;;;;;;9.15;1.70;;;;;;;;;;5069074;28;20131;-70
2022/11/21 14:34:26;;;;;;;10.07;1.80;;;;;;;;;;5082749;28;20027;-70
2022/11/21 14:36:52;;;;;;;8.43;2.00;;;;;;;;;;5078424;28;20545;-71
2022/11/21 14:39:19;;;;;;;9.02;1.67;;;;;;;;;;5080609;28;20459;-70
2022/11/21 14:41:49;;;;;;;10.55;2.20;;;;;;;;;;5077745;28;20035;-70
2022/11/21 14:44:17;;;;;;;10.57;2.17;;;;;;;;;;5065296;28;20028;-71
2022/11/21 14:46:43;;;;;;;11.07;2.22;;;;;;;;;;5064139;28;20063;-71
2022/11/21 14:49:18;;;;;;;10.23;2.03;;;;;;;;;;5067332;28;20501;-70
2022/11/21 14:51:48;;;;;;;11.00;2.35;;;;;;;;;;5067971;28;20036;-70
2022/11/21 14:54:24;;;;;;;12.10;2.22;;;;;;;;;;5067758;28;20015;-70
2022/11/21 14:57:01;;;;;;;9.85;1.73;;;;;;;;;;5072951;28;20509;-69
2022/11/21 14:59:32;;;;;;;14.45;2.72;;;;;;;;;;5070443;28;20030;-71
2022/11/21 15:01:59;;;;;;;12.43;2.10;;;;;;;;;;5069695;28;20512;-70
2022/11/21 15:04:27;;;;;;;9.85;2.00;;;;;;;;;;5064657;28;20016;-70
2022/11/21 15:06:53;;;;;;;11.02;2.10;;;;;;;;;;5068657;28;20572;-70
2022/11/21 15:12:04;;;;;;;11.48;1.77;;;;;;;;;;5577471;22;19928;-72
2022/11/21 15:14:34;;;;;;;11.82;2.35;;;;;;;;;;5017470;28;20857;-70
2022/11/21 15:17:03;;;;;;;13.40;2.42;;;;;;;;;;5013307;28;20036;-70
2022/11/21 15:19:31;;;;;;;8.65;1.60;;;;;;;;;;5020118;28;20488;-70
2022/11/21 15:22:03;;;;;;;11.30;2.15;;;;;;;;;;5010575;28;20390;-70
2022/11/21 15:24:29;;;;;;;10.43;2.50;;;;;;;;;;5012367;28;20025;-70
2022/11/21 15:26:58;;;;;;;;;;;;;;;;;;5011294;28;20036;-71
2022/11/21 15:29:24;;;;;;;10.20;2.00;;;;;;;;;;5012070;28;19913;-70
2022/11/21 15:31:53;;;;;;;;;;;;;;;;;;4998651;28;20667;-70
2022/11/21 15:34:27;;;;;;;11.65;2.10;;;;;;;;;;5017731;28;19962;-69
2022/11/21 15:37:11;;;;;;;11.23;2.05;;;;;;;;;;5015945;28;20021;-71
2022/11/21 15:39:42;;;;;;;14.73;2.35;;;;;;;;;;4994245;28;20311;-72
2022/11/21 15:42:26;;;;;;;15.05;2.45;;;;;;;;;;5013957;28;20033;-69
2022/11/21 15:45:00;;;;;;;13.07;1.90;;;;;;;;;;5013825;28;20033;-70
2022/11/21 15:47:26;;;;;;;13.10;1.98;;;;;;;;;;5013339;28;20025;-70
2022/11/21 15:49:52;;;;;;;;;;;;;;;;;;5021412;28;20064;-70
2022/11/21 15:52:18;;;;;;;15.60;1.90;;;;;;;;;;5024353;28;20024;-70
2022/11/21 15:54:44;;;;;;;9.43;2.20;;;;;;;;;;5025389;28;20423;-70
2022/11/21 15:57:10;;;;;;;;;;;;;;;;;;5021300;28;20536;-70
2022/11/21 15:59:36;;;;;;;11.35;2.25;;;;;;;;;;5021908;28;19912;-70
2022/11/21 16:02:02;;;;;;;9.85;2.13;;;;;;;;;;5006224;28;20025;-70
2022/11/21 16:04:28;;;;;;;10.00;2.25;;;;;;;;;;5020461;28;20048;-70
2022/11/21 16:06:54;;;;;;;;;;;;;;;;;;5021896;28;20017;-70
2022/11/21 16:09:20;;;;;;;9.40;1.95;;;;;;;;;;4999079;28;19966;-71
2022/11/21 16:11:46;;;;;;;;;;;;;;;;;;5002276;28;20466;-70
2022/11/21 16:14:14;;;;;;;9.52;2.30;;;;;;;;;;5015833;28;20505;-71
2022/11/21 16:16:41;;;;;;;10.43;2.28;;;;;;;;;;5002925;28;20029;-71
2022/11/21 16:19:07;;;;;;;10.18;1.90;;;;;;;;;;5008872;28;20029;-70
2022/11/21 16:21:33;;;;;;;9.90;1.88;;;;;;;;;;4999605;28;20036;-70
2022/11/21 16:23:59;;;;;;;8.80;1.67;;;;;;;;;;4997734;28;20233;-71
2022/11/21 16:26:27;;;;;;;;;;;;;;;;;;5016755;28;20577;-71
2022/11/21 16:28:54;;;;;;;8.90;1.50;;;;;;;;;;5015202;28;19919;-71
2022/11/21 16:31:38;;;;;;;5.28;1.45;;;;;;;;;;5000849;28;20034;-69
2022/11/21 16:34:04;;;;;;;10.88;1.80;;;;;;;;;;5020072;28;20060;-68
2022/11/21 16:36:30;;;;;;;;;;;;;;;;;;4995868;28;20416;-69
2022/11/21 16:38:57;;;;;;;10.65;1.73;;;;;;;;;;4995505;28;20492;-69
2022/11/21 16:41:23;;;;;;;10.48;1.92;;;;;;;;;;5015343;28;20481;-69
2022/11/21 16:43:51;;;;;;;9.52;2.00;;;;;;;;;;5009310;28;20033;-69
2022/11/21 16:46:18;;;;;;;18.92;2.00;;;;;;;;;;4997560;28;20415;-69
2022/11/21 16:48:44;;;;;;;10.15;1.70;;;;;;;;;;4995741;28;20041;-69
2022/11/21 16:51:11;;;;;;;;;;;;;;;;;;4993098;28;20383;-69
2022/11/21 16:53:37;;;;;;;11.00;2.42;;;;;;;;;;5012359;28;20453;-68
2022/11/21 16:56:03;;;;;;;;;;;;;;;;;;4990604;28;20319;-69
2022/11/21 16:58:29;;;;;;;11.35;2.20;;;;;;;;;;4995222;28;19920;-69
2022/11/21 17:00:55;;;;;;;12.10;2.05;;;;;;;;;;5011789;28;20145;-68
2022/11/21 17:03:21;;;;;;;10.23;2.25;;;;;;;;;;5013372;28;20032;-69
2022/11/21 17:05:57;;;;;;;10.80;2.28;;;;;;;;;;5011940;28;20025;-69
2022/11/21 17:08:23;;;;;;;11.52;2.13;;;;;;;;;;5014026;28;20059;-69
2022/11/21 17:10:49;;;;;;;12.35;2.40;;;;;;;;;;5007526;28;20040;-69
2022/11/21 17:13:15;;;;;;;;;;;;;;;;;;5000894;28;20032;-68
2022/11/21 17:15:41;;;;;;;12.05;2.22;;;;;;;;;;5016057;28;19917;-68
2022/11/21 17:18:07;;;;;;;14.57;3.38;;;;;;;;;;5013244;28;20033;-68
2022/11/21 17:20:33;;;;;;;10.80;2.40;;;;;;;;;;5015169;28;20071;-68
2022/11/21 17:22:59;;;;;;;11.68;2.58;;;;;;;;;;4987451;28;20101;-68
2022/11/21 17:25:26;;;;;;;9.52;1.80;;;;;;;;;;5010052;28;20540;-68
2022/11/21 17:27:52;;;;;;;13.38;2.92;;;;;;;;;;4993844;28;20047;-68
2022/11/21 17:30:18;;;;;;;16.90;3.10;;;;;;;;;;5013635;28;20032;-68
2022/11/21 17:32:44;;;;;;;14.70;2.72;;;;;;;;;;5013374;28;20033;-68
2022/11/21 17:35:10;;;;;;;13.38;2.47;;;;;;;;;;5008458;28;20064;-67
2022/11/21 17:37:37;;;;;;;16.17;2.75;;;;;;;;;;4995348;28;20020;-67
2022/11/21 17:40:05;;;;;;;9.95;2.33;;;;;;;;;;4991343;28;20066;-68
2022/11/21 17:42:31;;;;;;;13.23;2.55;;;;;;;;;;5010745;28;20663;-67
2022/11/21 17:44:57;;;;;;;;;;;;;;;;;;5009713;28;20036;-66
2022/11/21 17:47:23;;;;;;;11.00;2.72;;;;;;;;;;5011773;28;20243;-68
2022/11/21 17:49:50;;;;;;;14.82;2.97;;;;;;;;;;5010159;28;20547;-67
2022/11/21 17:52:16;;;;;;;10.23;2.65;;;;;;;;;;4990959;28;20349;-69
2022/11/21 17:54:42;;;;;;;11.13;2.70;;;;;;;;;;4996945;28;20033;-67
2022/11/21 17:57:08;;;;;;;10.90;2.53;;;;;;;;;;5009909;28;20376;-68
2022/11/21 17:59:37;;;;;;;11.73;2.70;;;;;;;;;;5015320;28;20021;-68
2022/11/21 18:02:03;;;;;;;9.05;2.53;;;;;;;;;;4995245;28;20028;-68
2022/11/21 18:04:29;;;;;;;9.20;3.25;;;;;;;;;;5015732;28;20688;-69
2022/11/21 18:06:55;;;;;;;;;;;;;;;;;;5010415;28;20395;-68
2022/11/21 18:09:21;;;;;;;11.43;2.45;;;;;;;;;;5012212;28;20002;-68
2022/11/21 18:11:47;;;;;;;7.55;1.60;;;;;;;;;;5014016;28;20156;-68
2022/11/21 18:14:14;;;;;;;10.52;2.95;;;;;;;;;;5012928;28;20033;-68
2022/11/21 18:16:41;;;;;;;6.85;2.00;;;;;;;;;;5013786;28;20032;-66
2022/11/21 18:19:11;;;;;;;11.77;4.50;;;;;;;;;;5017164;28;20043;-68
2022/11/21 18:21:37;;;;;;;15.18;6.57;;;;;;;;;;5017051;28;20029;-68
2022/11/21 18:24:03;;;;;;;27.17;12.25;;;;;;;;;;5002372;28;20029;-67
2022/11/21 18:26:30;;;;;;;19.83;9.00;;;;;;;;;;5016100;28;20041;-65
2022/11/21 18:29:00;;;;;;;13.02;4.07;;;;;;;;;;5015551;28;20029;-67
2022/11/21 18:31:28;;;;;;;10.35;2.60;;;;;;;;;;5019991;28;20171;-68
2022/11/21 18:33:55;;;;;;;6.22;1.33;;;;;;;;;;4998288;28;20029;-68
2022/11/21 18:36:21;;;;;;;6.38;1.95;;;;;;;;;;5015617;28;20297;-66
2022/11/21 18:38:48;;;;;;;6.32;1.40;;;;;;;;;;5014741;28;20031;-68
2022/11/21 18:41:18;;;;;;;9.13;2.05;;;;;;;;;;4999674;28;20069;-66
2022/11/21 18:43:49;;;;;;;12.02;2.50;;;;;;;;;;5019620;28;20144;-66
2022/11/21 18:46:15;;;;;;;13.25;2.80;;;;;;;;;;5017734;28;20075;-66
2022/11/21 18:48:42;;;;;;;9.77;1.98;;;;;;;;;;5004744;28;20144;-66
2022/11/21 18:51:12;;;;;;;13.27;2.65;;;;;;;;;;5000707;28;20136;-66
2022/11/21 18:53:39;;;;;;;13.55;3.00;;;;;;;;;;5003460;28;20120;-66
2022/11/21 18:56:06;;;;;;;14.60;3.15;;;;;;;;;;4998429;28;20032;-67
2022/11/21 18:58:36;;;;;;;18.92;3.30;;;;;;;;;;5000790;28;20036;-66
2022/11/21 19:01:03;;;;;;;16.05;4.85;;;;;;;;;;5001314;28;20079;-66
2022/11/21 19:03:29;;;;;;;18.92;4.32;;;;;;;;;;5003193;28;20473;-67
2022/11/21 19:05:56;;;;;;;17.63;3.83;;;;;;;;;;5012366;28;20056;-68
2022/11/21 19:08:23;;;;;;;13.68;3.60;;;;;;;;;;5002555;28;20033;-67
2022/11/21 19:10:49;;;;;;;16.67;3.45;;;;;;;;;;4996515;28;20037;-67
2022/11/21 19:13:15;;;;;;;;;;;;;;;;;;5002736;28;20037;-67
2022/11/21 19:15:42;;;;;;;15.90;5.95;;;;;;;;;;5019920;28;19947;-67
2022/11/21 19:18:08;;;;;;;16.38;3.67;;;;;;;;;;4996465;28;20124;-67
2022/11/21 19:20:35;;;;;;;14.80;3.40;;;;;;;;;;5001628;28;20036;-68
2022/11/21 19:23:01;;;;;;;17.05;3.33;;;;;;;;;;4995759;28;20041;-68
2022/11/21 19:25:28;;;;;;;13.07;3.03;;;;;;;;;;5023668;28;20029;-67
2022/11/21 19:27:56;;;;;;;14.68;2.95;;;;;;;;;;5021008;28;20057;-67
2022/11/21 19:30:22;;;;;;;22.70;3.40;;;;;;;;;;5004486;28;20474;-69
2022/11/21 19:32:48;;;;;;;18.83;3.15;;;;;;;;;;5002596;28;20033;-66
2022/11/21 19:35:16;;;;;;;13.45;2.75;;;;;;;;;;5019064;28;20032;-68
2022/11/21 19:37:42;;;;;;;14.25;2.78;;;;;;;;;;4998972;28;20029;-68
2022/11/21 19:40:10;;;;;;;19.35;3.00;;;;;;;;;;5016600;28;20037;-68
2022/11/21 19:42:36;;;;;;;16.58;2.53;;;;;;;;;;4999824;28;20562;-68
2022/11/21 19:45:06;;;;;;;13.82;2.50;;;;;;;;;;5002821;28;20053;-68
2022/11/21 19:47:33;;;;;;;14.02;2.60;;;;;;;;;;4998730;28;20037;-67
2022/11/21 19:49:59;;;;;;;12.20;2.33;;;;;;;;;;4997483;28;20512;-67
2022/11/21 19:52:25;;;;;;;11.85;2.30;;;;;;;;;;5019007;28;20025;-67
2022/11/21 19:54:52;;;;;;;;;;;;;;;;;;4997496;28;20390;-67
2022/11/21 19:57:18;;;;;;;12.43;2.60;;;;;;;;;;5001605;28;19912;-67
2022/11/21 19:59:44;;;;;;;16.83;2.70;;;;;;;;;;5017249;28;20036;-67
2022/11/21 20:02:16;;;;;;;21.98;3.85;;;;;;;;;;4995240;28;20025;-67
2022/11/21 20:04:42;;;;;;;16.35;3.17;;;;;;;;;;5004404;28;20345;-66
2022/11/21 20:07:08;;;;;;;10.77;2.03;;;;;;;;;;5014191;28;20147;-66
2022/11/21 20:09:34;;;;;;;;;;;;;;;;;;5011904;28;20033;-66
2022/11/21 20:12:03;;;;;;;12.10;2.20;;;;;;;;;;5014496;28;19928;-66
2022/11/21 20:14:30;;;;;;;13.05;2.17;;;;;;;;;;4998779;28;20091;-66
2022/11/21 20:16:56;;;;;;;13.13;2.15;;;;;;;;;;5016571;28;20192;-66
2022/11/21 20:19:23;;;;;;;13.48;2.13;;;;;;;;;;5017830;28;20025;-65
2022/11/21 20:21:50;;;;;;;11.57;2.60;;;;;;;;;;4996687;28;20516;-66
2022/11/21 20:24:16;;;;;;;16.27;3.17;;;;;;;;;;4999733;28;20025;-66
2022/11/21 20:26:43;;;;;;;17.60;3.00;;;;;;;;;;4997425;28;20398;-67
2022/11/21 20:29:11;;;;;;;11.80;2.47;;;;;;;;;;5012648;28;20083;-67
2022/11/21 20:31:37;;;;;;;15.35;2.92;;;;;;;;;;4997917;28;20033;-65
2022/11/21 20:34:11;;;;;;;14.13;2.38;;;;;;;;;;5011600;28;20477;-65
2022/11/21 20:36:38;;;;;;;13.13;2.20;;;;;;;;;;4997979;28;20636;-65
2022/11/21 20:39:05;;;;;;;9.40;1.58;;;;;;;;;;5011144;28;20068;-65
2022/11/21 20:41:37;;;;;;;9.07;1.70;;;;;;;;;;4997512;28;20204;-65
2022/11/21 20:44:07;;;;;;;12.93;2.55;;;;;;;;;;4995640;28;20087;-66
2022/11/21 20:46:34;;;;;;;12.90;2.75;;;;;;;;;;5016799;28;20391;-67
2022/11/21 20:49:00;;;;;;;12.48;1.95;;;;;;;;;;5008765;28;20150;-65
2022/11/21 20:51:30;;;;;;;14.52;1.90;;;;;;;;;;5014507;28;20037;-65
2022/11/21 20:53:56;;;;;;;9.95;1.88;;;;;;;;;;4993715;28;20466;-67
2022/11/21 20:56:22;;;;;;;10.90;2.40;;;;;;;;;;5014453;28;20111;-66
2022/11/21 20:58:49;;;;;;;15.13;2.08;;;;;;;;;;4994766;28;20029;-64
2022/11/21 21:01:16;;;;;;;13.80;2.30;;;;;;;;;;5017146;28;20037;-66
2022/11/21 21:03:42;;;;;;;12.57;2.25;;;;;;;;;;5015792;28;20056;-67
2022/11/21 21:06:08;;;;;;;;;;;;;;;;;;5012426;28;20691;-66
2022/11/21 21:08:35;;;;;;;15.20;1.95;;;;;;;;;;5012708;28;20140;-66
2022/11/21 21:11:10;;;;;;;13.20;2.80;;;;;;;;;;5016743;28;20041;-66
2022/11/21 21:13:36;;;;;;;11.27;2.20;;;;;;;;;;5001356;28;20032;-66
2022/11/21 21:16:07;;;;;;;8.65;1.80;;;;;;;;;;4993821;28;20021;-65
2022/11/21 21:18:34;;;;;;;10.55;2.60;;;;;;;;;;5002783;28;20097;-66
2022/11/21 21:21:09;;;;;;;8.35;1.90;;;;;;;;;;5003544;28;20600;-66
2022/11/21 21:23:37;;;;;;;9.23;2.53;;;;;;;;;;4997386;28;20024;-66
2022/11/21 21:26:08;;;;;;;9.43;1.98;;;;;;;;;;5009596;28;20037;-66
2022/11/21 21:28:34;;;;;;;10.50;2.00;;;;;;;;;;4995103;28;20032;-67
2022/11/21 21:31:00;;;;;;;8.07;1.90;;;;;;;;;;4997235;28;20087;-64
2022/11/21 21:33:26;;;;;;;7.80;1.92;;;;;;;;;;4999482;28;20554;-64
2022/11/21 21:35:52;;;;;;;6.57;1.40;;;;;;;;;;4998350;28;20225;-64
2022/11/21 21:38:19;;;;;;;5.75;1.38;;;;;;;;;;4995863;28;20037;-66
2022/11/21 21:40:47;;;;;;;7.13;1.35;;;;;;;;;;5004938;28;20064;-65
2022/11/21 21:43:13;;;;;;;6.65;1.58;;;;;;;;;;5018880;28;20747;-64
2022/11/21 21:45:39;;;;;;;8.25;1.92;;;;;;;;;;4994905;28;20679;-65
2022/11/21 21:48:05;;;;;;;9.48;1.50;;;;;;;;;;5010077;28;20186;-64
2022/11/21 21:50:32;;;;;;;7.55;1.55;;;;;;;;;;4995727;28;20048;-65
2022/11/21 21:52:59;;;;;;;8.00;1.40;;;;;;;;;;5013291;28;20151;-64
2022/11/21 21:55:25;;;;;;;8.77;1.20;;;;;;;;;;5003857;28;20075;-66
2022/11/21 21:57:52;;;;;;;10.57;1.35;;;;;;;;;;5012870;28;20040;-64
2022/11/21 22:00:18;;;;;;;7.75;1.25;;;;;;;;;;5019978;28;20054;-64
2022/11/21 22:02:44;;;;;;;6.22;1.40;;;;;;;;;;5022401;28;20035;-63
2022/11/21 22:05:10;;;;;;;7.35;1.52;;;;;;;;;;5020546;28;20029;-64
2022/11/21 22:07:36;;;;;;;8.38;1.38;;;;;;;;;;5014251;28;20041;-64
2022/11/21 22:10:02;;;;;;;8.77;1.23;;;;;;;;;;4996915;28;20102;-63
2022/11/21 22:12:28;;;;;;;7.03;1.70;;;;;;;;;;4999148;28;20086;-64
2022/11/21 22:14:54;;;;;;;7.22;1.30;;;;;;;;;;5010885;28;21722;-65
2022/11/21 22:17:20;;;;;;;6.38;1.20;;;;;;;;;;5000815;28;20021;-63
2022/11/21 22:19:47;;;;;;;7.88;1.17;;;;;;;;;;5011451;28;20049;-62
2022/11/21 22:22:14;;;;;;;7.03;1.10;;;;;;;;;;4998407;28;20029;-63
2022/11/21 22:24:40;;;;;;;9.93;2.20;;;;;;;;;;5021820;28;20825;-64
2022/11/21 22:27:06;;;;;;;10.50;1.48;;;;;;;;;;5017860;28;20029;-63
2022/11/21 22:29:32;;;;;;;7.53;1.23;;;;;;;;;;5005307;28;20438;-64
2022/11/21 22:31:58;;;;;;;9.40;1.40;;;;;;;;;;5017879;28;20059;-63
2022/11/21 22:34:25;;;;;;;5.22;1.15;;;;;;;;;;5022269;28;20103;-63
2022/11/21 22:36:55;;;;;;;5.07;0.90;;;;;;;;;;5016083;28;20026;-64
2022/11/21 22:39:21;;;;;;;6.38;1.20;;;;;;;;;;5016911;28;20037;-64
2022/11/21 22:41:47;;;;;;;6.90;1.25;;;;;;;;;;5002283;28;20033;-64
2022/11/21 22:44:14;;;;;;;7.20;1.55;;;;;;;;;;5000560;28;20494;-64
2022/11/21 22:46:40;;;;;;;8.30;1.05;;;;;;;;;;5019131;28;20040;-64
2022/11/21 22:49:08;;;;;;;7.40;1.20;;;;;;;;;;5015336;28;20055;-63
2022/11/21 22:51:35;;;;;;;9.05;1.35;;;;;;;;;;5019298;28;20438;-64
2022/11/21 22:54:01;;;;;;;9.63;1.55;;;;;;;;;;5018790;28;20046;-64
2022/11/21 22:56:27;;;;;;;7.90;1.42;;;;;;;;;;5018337;28;20479;-64
2022/11/21 22:58:53;;;;;;;7.28;1.40;;;;;;;;;;5017151;28;20025;-64
2022/11/21 23:01:23;;;;;;;10.30;1.55;;;;;;;;;;5018892;28;20044;-64
2022/11/21 23:03:49;;;;;;;12.23;2.05;;;;;;;;;;5012890;28;20340;-63
2022/11/21 23:06:17;;;;;;;11.00;1.73;;;;;;;;;;4999316;28;20059;-64
2022/11/21 23:08:44;;;;;;;9.77;1.55;;;;;;;;;;5019732;28;20578;-64
2022/11/21 23:11:14;;;;;;;14.00;2.10;;;;;;;;;;4995618;28;20580;-64
2022/11/21 23:13:42;;;;;;;9.85;1.70;;;;;;;;;;5000357;28;20033;-64
2022/11/21 23:16:09;;;;;;;11.80;1.60;;;;;;;;;;5014600;28;20359;-64
2022/11/21 23:18:35;;;;;;;9.25;1.52;;;;;;;;;;5017889;28;20505;-66
2022/11/21 23:21:02;;;;;;;11.07;1.90;;;;;;;;;;5016501;28;20032;-63
2022/11/21 23:23:28;;;;;;;12.82;2.33;;;;;;;;;;5018162;28;20475;-63
2022/11/21 23:25:54;;;;;;;13.38;2.00;;;;;;;;;;5025924;28;20029;-65
2022/11/21 23:28:20;;;;;;;8.55;1.48;;;;;;;;;;5024987;28;20021;-69
2022/11/21 23:30:48;;;;;;;13.00;2.28;;;;;;;;;;5016192;28;20080;-69
2022/11/21 23:33:15;;;;;;;16.42;3.00;;;;;;;;;;5002480;28;20025;-68
2022/11/21 23:35:44;;;;;;;11.23;1.65;;;;;;;;;;5002031;28;20043;-69
2022/11/21 23:38:11;;;;;;;15.15;2.30;;;;;;;;;;5014119;28;20013;-68
2022/11/21 23:40:37;;;;;;;10.07;2.28;;;;;;;;;;5018859;28;20394;-69
2022/11/21 23:43:03;;;;;;;11.57;1.88;;;;;;;;;;4997652;28;20120;-68
2022/11/21 23:45:35;;;;;;;14.43;1.60;;;;;;;;;;5001861;28;20132;-68
2022/11/21 23:48:04;;;;;;;13.50;2.25;;;;;;;;;;5000632;28;20651;-68
2022/11/21 23:50:30;;;;;;;15.13;2.05;;;;;;;;;;5021179;28;20040;-69
2022/11/21 23:52:57;;;;;;;11.25;2.40;;;;;;;;;;5018353;28;20029;-69
2022/11/21 23:55:23;;;;;;;11.98;1.90;;;;;;;;;;5001625;28;20617;-69
2022/11/21 23:57:50;;;;;;;10.25;1.50;;;;;;;;;;5014054;28;21866;-69
